sensor_id;sensor_type;location;lat;lon;timestamp;temperature;humidity
65396;HTU21D;52004;45.136;39.010;2023-05-07T00:00:49;18.02;59.64
65396;HTU21D;52004;45.136;39.010;2023-05-07T00:03:15;18.02;59.66
65396;HTU21D;52004;45.136;39.010;2023-05-07T00:05:41;17.98;59.63
65396;HTU21D;52004;45.136;39.010;2023-05-07T00:08:06;17.96;59.67
65396;HTU21D;52004;45.136;39.010;2023-05-07T00:10:33;17.92;59.76
65396;HTU21D;52004;45.136;39.010;2023-05-07T00:12:59;17.90;59.85
65396;HTU21D;52004;45.136;39.010;2023-05-07T00:15:24;17.85;59.86
65396;HTU21D;52004;45.136;39.010;2023-05-07T00:17:50;17.84;59.90
65396;HTU21D;52004;45.136;39.010;2023-05-07T00:20:16;17.83;59.87
65396;HTU21D;52004;45.136;39.010;2023-05-07T00:22:42;17.83;59.85
65396;HTU21D;52004;45.136;39.010;2023-05-07T00:25:08;17.84;59.85
65396;HTU21D;52004;45.136;39.010;2023-05-07T00:27:34;17.81;59.84
65396;HTU21D;52004;45.136;39.010;2023-05-07T00:30:00;17.81;59.84
65396;HTU21D;52004;45.136;39.010;2023-05-07T00:32:26;17.79;59.97
65396;HTU21D;52004;45.136;39.010;2023-05-07T00:34:52;17.74;60.01
65396;HTU21D;52004;45.136;39.010;2023-05-07T00:37:18;17.70;60.06
65396;HTU21D;52004;45.136;39.010;2023-05-07T00:39:43;17.66;60.10
65396;HTU21D;52004;45.136;39.010;2023-05-07T00:42:09;17.61;60.15
65396;HTU21D;52004;45.136;39.010;2023-05-07T00:44:35;17.58;60.26
65396;HTU21D;52004;45.136;39.010;2023-05-07T00:47:01;17.54;60.33
65396;HTU21D;52004;45.136;39.010;2023-05-07T00:49:35;17.49;60.33
65396;HTU21D;52004;45.136;39.010;2023-05-07T00:52:02;17.47;60.35
65396;HTU21D;52004;45.136;39.010;2023-05-07T00:54:28;17.46;60.35
65396;HTU21D;52004;45.136;39.010;2023-05-07T00:56:55;17.41;60.41
65396;HTU21D;52004;45.136;39.010;2023-05-07T00:59:20;17.36;60.55
65396;HTU21D;52004;45.136;39.010;2023-05-07T01:01:46;17.30;60.63
65396;HTU21D;52004;45.136;39.010;2023-05-07T01:04:12;17.24;60.64
65396;HTU21D;52004;45.136;39.010;2023-05-07T01:06:38;17.23;60.64
65396;HTU21D;52004;45.136;39.010;2023-05-07T01:09:04;17.21;60.57
65396;HTU21D;52004;45.136;39.010;2023-05-07T01:11:30;17.21;60.57
65396;HTU21D;52004;45.136;39.010;2023-05-07T01:13:56;17.18;60.59
65396;HTU21D;52004;45.136;39.010;2023-05-07T01:16:24;17.15;60.59
65396;HTU21D;52004;45.136;39.010;2023-05-07T01:18:50;17.15;60.59
65396;HTU21D;52004;45.136;39.010;2023-05-07T01:21:16;17.13;60.59
65396;HTU21D;52004;45.136;39.010;2023-05-07T01:23:44;17.06;60.64
65396;HTU21D;52004;45.136;39.010;2023-05-07T01:26:10;17.05;60.67
65396;HTU21D;52004;45.136;39.010;2023-05-07T01:28:36;17.01;60.73
65396;HTU21D;52004;45.136;39.010;2023-05-07T01:31:03;16.98;60.76
65396;HTU21D;52004;45.136;39.010;2023-05-07T01:33:31;16.94;60.77
65396;HTU21D;52004;45.136;39.010;2023-05-07T01:35:58;16.89;60.83
65396;HTU21D;52004;45.136;39.010;2023-05-07T01:38:28;16.86;60.84
65396;HTU21D;52004;45.136;39.010;2023-05-07T01:40:55;16.80;60.89
65396;HTU21D;52004;45.136;39.010;2023-05-07T01:43:21;16.79;60.96
65396;HTU21D;52004;45.136;39.010;2023-05-07T01:45:47;16.77;60.91
65396;HTU21D;52004;45.136;39.010;2023-05-07T01:48:14;16.75;60.93
65396;HTU21D;52004;45.136;39.010;2023-05-07T01:50:44;16.72;60.93
65396;HTU21D;52004;45.136;39.010;2023-05-07T01:53:10;16.69;60.98
65396;HTU21D;52004;45.136;39.010;2023-05-07T01:55:36;16.64;60.97
65396;HTU21D;52004;45.136;39.010;2023-05-07T01:58:05;16.63;61.05
65396;HTU21D;52004;45.136;39.010;2023-05-07T02:00:31;16.57;61.11
65396;HTU21D;52004;45.136;39.010;2023-05-07T02:02:58;16.55;61.12
65396;HTU21D;52004;45.136;39.010;2023-05-07T02:05:33;16.50;61.21
65396;HTU21D;52004;45.136;39.010;2023-05-07T02:08:05;16.45;61.22
65396;HTU21D;52004;45.136;39.010;2023-05-07T02:10:31;16.40;61.30
65396;HTU21D;52004;45.136;39.010;2023-05-07T02:12:58;16.39;61.25
65396;HTU21D;52004;45.136;39.010;2023-05-07T02:15:27;16.40;61.24
65396;HTU21D;52004;45.136;39.010;2023-05-07T02:18:00;16.40;61.20
65396;HTU21D;52004;45.136;39.010;2023-05-07T02:20:27;16.39;61.20
65396;HTU21D;52004;45.136;39.010;2023-05-07T02:22:53;16.39;61.15
65396;HTU21D;52004;45.136;39.010;2023-05-07T02:25:19;16.35;61.21
65396;HTU21D;52004;45.136;39.010;2023-05-07T02:27:45;16.33;61.25
65396;HTU21D;52004;45.136;39.010;2023-05-07T02:30:13;16.30;61.25
65396;HTU21D;52004;45.136;39.010;2023-05-07T02:32:39;16.25;61.33
65396;HTU21D;52004;45.136;39.010;2023-05-07T02:35:05;16.22;61.37
65396;HTU21D;52004;45.136;39.010;2023-05-07T02:37:31;16.20;61.39
65396;HTU21D;52004;45.136;39.010;2023-05-07T02:39:58;16.18;61.44
65396;HTU21D;52004;45.136;39.010;2023-05-07T02:42:23;16.17;61.55
65396;HTU21D;52004;45.136;39.010;2023-05-07T02:44:49;16.15;61.48
65396;HTU21D;52004;45.136;39.010;2023-05-07T02:47:15;16.13;61.49
65396;HTU21D;52004;45.136;39.010;2023-05-07T02:49:43;16.13;61.49
65396;HTU21D;52004;45.136;39.010;2023-05-07T02:52:09;16.08;61.57
65396;HTU21D;52004;45.136;39.010;2023-05-07T02:54:35;16.05;61.56
65396;HTU21D;52004;45.136;39.010;2023-05-07T02:57:00;16.04;61.57
65396;HTU21D;52004;45.136;39.010;2023-05-07T02:59:28;16.04;61.58
65396;HTU21D;52004;45.136;39.010;2023-05-07T03:01:56;16.02;61.52
65396;HTU21D;52004;45.136;39.010;2023-05-07T03:04:22;16.00;61.56
65396;HTU21D;52004;45.136;39.010;2023-05-07T03:06:48;15.97;61.62
65396;HTU21D;52004;45.136;39.010;2023-05-07T03:09:14;15.92;61.67
65396;HTU21D;52004;45.136;39.010;2023-05-07T03:11:40;15.90;61.70
65396;HTU21D;52004;45.136;39.010;2023-05-07T03:14:06;15.86;61.74
65396;HTU21D;52004;45.136;39.010;2023-05-07T03:16:32;15.84;61.76
65396;HTU21D;52004;45.136;39.010;2023-05-07T03:18:58;15.82;61.81
65396;HTU21D;52004;45.136;39.010;2023-05-07T03:21:24;15.81;61.76
65396;HTU21D;52004;45.136;39.010;2023-05-07T03:23:51;15.81;61.82
65396;HTU21D;52004;45.136;39.010;2023-05-07T03:26:17;15.78;61.79
65396;HTU21D;52004;45.136;39.010;2023-05-07T03:28:44;15.77;61.83
65396;HTU21D;52004;45.136;39.010;2023-05-07T03:31:12;15.76;61.83
65396;HTU21D;52004;45.136;39.010;2023-05-07T03:33:48;15.76;61.86
65396;HTU21D;52004;45.136;39.010;2023-05-07T03:36:14;15.74;61.92
65396;HTU21D;52004;45.136;39.010;2023-05-07T03:38:41;15.73;61.89
65396;HTU21D;52004;45.136;39.010;2023-05-07T03:41:07;15.74;61.95
65396;HTU21D;52004;45.136;39.010;2023-05-07T03:43:33;15.75;61.89
65396;HTU21D;52004;45.136;39.010;2023-05-07T03:46:05;15.80;61.82
65396;HTU21D;52004;45.136;39.010;2023-05-07T03:48:31;15.81;61.79
65396;HTU21D;52004;45.136;39.010;2023-05-07T03:50:58;15.83;61.76
65396;HTU21D;52004;45.136;39.010;2023-05-07T03:53:27;15.84;61.74
65396;HTU21D;52004;45.136;39.010;2023-05-07T03:55:53;15.83;61.84
65396;HTU21D;52004;45.136;39.010;2023-05-07T03:58:20;15.82;61.77
65396;HTU21D;52004;45.136;39.010;2023-05-07T04:00:47;15.80;61.86
65396;HTU21D;52004;45.136;39.010;2023-05-07T04:03:26;15.80;61.83
65396;HTU21D;52004;45.136;39.010;2023-05-07T04:05:53;15.78;61.80
65396;HTU21D;52004;45.136;39.010;2023-05-07T04:08:19;15.78;61.86
65396;HTU21D;52004;45.136;39.010;2023-05-07T04:10:53;15.76;61.88
65396;HTU21D;52004;45.136;39.010;2023-05-07T04:13:19;15.77;61.92
65396;HTU21D;52004;45.136;39.010;2023-05-07T04:15:45;15.80;61.93
65396;HTU21D;52004;45.136;39.010;2023-05-07T04:18:14;15.83;61.89
65396;HTU21D;52004;45.136;39.010;2023-05-07T04:20:43;15.83;61.90
65396;HTU21D;52004;45.136;39.010;2023-05-07T04:23:12;15.85;61.92
65396;HTU21D;52004;45.136;39.010;2023-05-07T04:25:38;15.87;61.89
65396;HTU21D;52004;45.136;39.010;2023-05-07T04:28:10;15.91;61.85
65396;HTU21D;52004;45.136;39.010;2023-05-07T04:30:38;15.95;61.86
65396;HTU21D;52004;45.136;39.010;2023-05-07T04:33:06;15.97;61.78
65396;HTU21D;52004;45.136;39.010;2023-05-07T04:35:33;15.99;61.79
65396;HTU21D;52004;45.136;39.010;2023-05-07T04:38:00;16.00;61.73
65396;HTU21D;52004;45.136;39.010;2023-05-07T04:40:25;15.99;61.76
65396;HTU21D;52004;45.136;39.010;2023-05-07T04:42:51;15.96;61.78
65396;HTU21D;52004;45.136;39.010;2023-05-07T04:45:19;15.93;61.76
65396;HTU21D;52004;45.136;39.010;2023-05-07T04:47:46;15.91;61.80
65396;HTU21D;52004;45.136;39.010;2023-05-07T04:50:12;15.89;61.89
65396;HTU21D;52004;45.136;39.010;2023-05-07T04:52:40;15.88;61.85
65396;HTU21D;52004;45.136;39.010;2023-05-07T04:55:06;15.88;61.85
65396;HTU21D;52004;45.136;39.010;2023-05-07T04:57:36;15.83;61.90
65396;HTU21D;52004;45.136;39.010;2023-05-07T05:00:05;15.77;61.94
65396;HTU21D;52004;45.136;39.010;2023-05-07T05:02:33;15.73;61.96
65396;HTU21D;52004;45.136;39.010;2023-05-07T05:04:59;15.73;61.97
65396;HTU21D;52004;45.136;39.010;2023-05-07T05:07:27;15.72;62.00
65396;HTU21D;52004;45.136;39.010;2023-05-07T05:09:54;15.73;61.99
65396;HTU21D;52004;45.136;39.010;2023-05-07T05:12:22;15.72;61.99
65396;HTU21D;52004;45.136;39.010;2023-05-07T05:14:49;15.72;62.04
65396;HTU21D;52004;45.136;39.010;2023-05-07T05:17:15;15.71;62.04
65396;HTU21D;52004;45.136;39.010;2023-05-07T05:19:41;15.70;62.07
65396;HTU21D;52004;45.136;39.010;2023-05-07T05:22:07;15.71;62.06
65396;HTU21D;52004;45.136;39.010;2023-05-07T05:24:33;15.71;62.05
65396;HTU21D;52004;45.136;39.010;2023-05-07T05:27:00;15.71;62.05
65396;HTU21D;52004;45.136;39.010;2023-05-07T05:29:29;15.73;62.08
65396;HTU21D;52004;45.136;39.010;2023-05-07T05:31:57;15.71;62.05
65396;HTU21D;52004;45.136;39.010;2023-05-07T05:34:24;15.70;62.07
65396;HTU21D;52004;45.136;39.010;2023-05-07T05:36:51;15.70;62.09
65396;HTU21D;52004;45.136;39.010;2023-05-07T05:39:17;15.65;62.12
65396;HTU21D;52004;45.136;39.010;2023-05-07T05:41:44;15.65;62.14
65396;HTU21D;52004;45.136;39.010;2023-05-07T05:44:12;15.67;62.15
65396;HTU21D;52004;45.136;39.010;2023-05-07T05:46:38;15.68;62.18
65396;HTU21D;52004;45.136;39.010;2023-05-07T05:49:05;15.70;62.19
65396;HTU21D;52004;45.136;39.010;2023-05-07T05:51:31;15.74;62.18
65396;HTU21D;52004;45.136;39.010;2023-05-07T05:53:57;15.78;62.18
65396;HTU21D;52004;45.136;39.010;2023-05-07T05:56:23;15.85;62.16
65396;HTU21D;52004;45.136;39.010;2023-05-07T05:58:49;15.91;62.12
65396;HTU21D;52004;45.136;39.010;2023-05-07T06:01:15;15.96;62.12
65396;HTU21D;52004;45.136;39.010;2023-05-07T06:03:40;16.00;62.11
65396;HTU21D;52004;45.136;39.010;2023-05-07T06:06:12;16.05;62.12
65396;HTU21D;52004;45.136;39.010;2023-05-07T06:08:38;16.11;62.12
65396;HTU21D;52004;45.136;39.010;2023-05-07T06:11:04;16.17;62.18
65396;HTU21D;52004;45.136;39.010;2023-05-07T06:13:33;0.00;62.17
65396;HTU21D;52004;45.136;39.010;2023-05-07T06:16:00;16.29;62.14
65396;HTU21D;52004;45.136;39.010;2023-05-07T06:18:25;16.37;62.19
65396;HTU21D;52004;45.136;39.010;2023-05-07T06:20:52;16.44;62.15
65396;HTU21D;52004;45.136;39.010;2023-05-07T06:23:24;16.51;62.12
65396;HTU21D;52004;45.136;39.010;2023-05-07T06:25:50;16.56;62.13
65396;HTU21D;52004;45.136;39.010;2023-05-07T06:28:17;16.63;62.12
65396;HTU21D;52004;45.136;39.010;2023-05-07T06:30:43;0.00;62.08
65396;HTU21D;52004;45.136;39.010;2023-05-07T06:33:10;16.72;62.16
65396;HTU21D;52004;45.136;39.010;2023-05-07T06:35:36;16.80;62.21
65396;HTU21D;52004;45.136;39.010;2023-05-07T06:38:02;16.88;62.15
65396;HTU21D;52004;45.136;39.010;2023-05-07T06:40:29;16.96;62.14
65396;HTU21D;52004;45.136;39.010;2023-05-07T06:42:58;17.04;62.07
65396;HTU21D;52004;45.136;39.010;2023-05-07T06:45:40;0.00;62.13
65396;HTU21D;52004;45.136;39.010;2023-05-07T06:48:09;0.00;62.05
65396;HTU21D;52004;45.136;39.010;2023-05-07T06:53:48;17.26;62.04
65396;HTU21D;52004;45.136;39.010;2023-05-07T06:56:14;17.31;62.04
65396;HTU21D;52004;45.136;39.010;2023-05-07T06:58:40;17.32;62.02
65396;HTU21D;52004;45.136;39.010;2023-05-07T07:01:08;17.35;62.01
65396;HTU21D;52004;45.136;39.010;2023-05-07T07:03:36;0.00;62.02
65396;HTU21D;52004;45.136;39.010;2023-05-07T07:06:02;17.38;61.99
65396;HTU21D;52004;45.136;39.010;2023-05-07T07:08:29;17.40;61.95
65396;HTU21D;52004;45.136;39.010;2023-05-07T07:10:56;17.41;61.89
65396;HTU21D;52004;45.136;39.010;2023-05-07T07:13:22;17.40;61.88
65396;HTU21D;52004;45.136;39.010;2023-05-07T07:15:56;17.40;61.87
65396;HTU21D;52004;45.136;39.010;2023-05-07T07:18:23;17.44;61.86
65396;HTU21D;52004;45.136;39.010;2023-05-07T07:20:55;17.44;61.86
65396;HTU21D;52004;45.136;39.010;2023-05-07T07:23:22;17.39;61.81
65396;HTU21D;52004;45.136;39.010;2023-05-07T07:26:12;17.36;61.87
65396;HTU21D;52004;45.136;39.010;2023-05-07T07:28:42;17.30;61.89
65396;HTU21D;52004;45.136;39.010;2023-05-07T07:31:08;17.25;61.99
65396;HTU21D;52004;45.136;39.010;2023-05-07T07:33:34;17.19;62.08
65396;HTU21D;52004;45.136;39.010;2023-05-07T07:36:00;17.19;62.24
65396;HTU21D;52004;45.136;39.010;2023-05-07T07:38:26;17.17;62.21
65396;HTU21D;52004;45.136;39.010;2023-05-07T07:40:52;17.17;62.22
65396;HTU21D;52004;45.136;39.010;2023-05-07T07:43:18;17.20;62.29
65396;HTU21D;52004;45.136;39.010;2023-05-07T07:45:44;17.26;62.24
65396;HTU21D;52004;45.136;39.010;2023-05-07T07:48:11;17.30;62.17
65396;HTU21D;52004;45.136;39.010;2023-05-07T07:54:37;17.46;62.09
65396;HTU21D;52004;45.136;39.010;2023-05-07T07:57:06;17.53;62.11
65396;HTU21D;52004;45.136;39.010;2023-05-07T07:59:47;17.61;62.08
65396;HTU21D;52004;45.136;39.010;2023-05-07T08:02:42;17.65;62.00
65396;HTU21D;52004;45.136;39.010;2023-05-07T08:05:10;17.68;62.04
65396;HTU21D;52004;45.136;39.010;2023-05-07T08:07:36;17.73;62.05
65396;HTU21D;52004;45.136;39.010;2023-05-07T08:10:02;17.76;61.99
65396;HTU21D;52004;45.136;39.010;2023-05-07T08:12:28;17.78;62.02
65396;HTU21D;52004;45.136;39.010;2023-05-07T08:14:54;17.79;62.01
65396;HTU21D;52004;45.136;39.010;2023-05-07T08:17:21;17.79;62.00
65396;HTU21D;52004;45.136;39.010;2023-05-07T08:19:49;17.79;61.99
65396;HTU21D;52004;45.136;39.010;2023-05-07T08:22:15;17.78;61.98
65396;HTU21D;52004;45.136;39.010;2023-05-07T08:24:41;17.78;62.07
65396;HTU21D;52004;45.136;39.010;2023-05-07T08:27:07;17.80;62.08
65396;HTU21D;52004;45.136;39.010;2023-05-07T08:29:33;17.85;62.09
65396;HTU21D;52004;45.136;39.010;2023-05-07T08:32:00;17.92;62.05
65396;HTU21D;52004;45.136;39.010;2023-05-07T08:34:26;17.98;62.02
65396;HTU21D;52004;45.136;39.010;2023-05-07T08:36:54;18.03;61.98
65396;HTU21D;52004;45.136;39.010;2023-05-07T08:39:23;18.08;62.00
65396;HTU21D;52004;45.136;39.010;2023-05-07T08:41:52;18.12;61.91
65396;HTU21D;52004;45.136;39.010;2023-05-07T08:44:20;18.15;61.89
65396;HTU21D;52004;45.136;39.010;2023-05-07T08:46:48;18.21;61.92
65396;HTU21D;52004;45.136;39.010;2023-05-07T08:49:17;18.24;61.89
65396;HTU21D;52004;45.136;39.010;2023-05-07T08:51:44;18.25;61.91
65396;HTU21D;52004;45.136;39.010;2023-05-07T08:54:10;18.26;61.83
65396;HTU21D;52004;45.136;39.010;2023-05-07T08:56:37;18.26;61.87
65396;HTU21D;52004;45.136;39.010;2023-05-07T08:59:03;18.27;61.89
65396;HTU21D;52004;45.136;39.010;2023-05-07T09:01:29;18.29;61.91
65396;HTU21D;52004;45.136;39.010;2023-05-07T09:03:56;18.36;61.96
65396;HTU21D;52004;45.136;39.010;2023-05-07T09:06:24;18.43;61.91
65396;HTU21D;52004;45.136;39.010;2023-05-07T09:08:51;18.46;61.84
65396;HTU21D;52004;45.136;39.010;2023-05-07T09:11:22;18.46;61.80
65396;HTU21D;52004;45.136;39.010;2023-05-07T09:13:52;18.47;61.83
65396;HTU21D;52004;45.136;39.010;2023-05-07T09:16:19;18.49;61.83
65396;HTU21D;52004;45.136;39.010;2023-05-07T09:18:46;18.50;61.82
65396;HTU21D;52004;45.136;39.010;2023-05-07T09:21:14;18.53;61.84
65396;HTU21D;52004;45.136;39.010;2023-05-07T09:23:41;18.57;61.79
65396;HTU21D;52004;45.136;39.010;2023-05-07T09:26:08;18.58;61.75
65396;HTU21D;52004;45.136;39.010;2023-05-07T09:28:41;18.58;61.70
65396;HTU21D;52004;45.136;39.010;2023-05-07T09:31:10;18.59;61.69
65396;HTU21D;52004;45.136;39.010;2023-05-07T09:33:37;18.63;61.76
65396;HTU21D;52004;45.136;39.010;2023-05-07T09:36:04;18.64;61.75
65396;HTU21D;52004;45.136;39.010;2023-05-07T09:38:54;18.66;61.70
65396;HTU21D;52004;45.136;39.010;2023-05-07T09:41:22;18.67;61.73
65396;HTU21D;52004;45.136;39.010;2023-05-07T09:44:05;18.71;61.78
65396;HTU21D;52004;45.136;39.010;2023-05-07T09:46:38;18.73;61.74
65396;HTU21D;52004;45.136;39.010;2023-05-07T09:49:12;18.78;61.76
65396;HTU21D;52004;45.136;39.010;2023-05-07T09:51:43;18.80;61.73
65396;HTU21D;52004;45.136;39.010;2023-05-07T09:54:11;18.85;61.76
65396;HTU21D;52004;45.136;39.010;2023-05-07T09:56:40;18.91;61.70
65396;HTU21D;52004;45.136;39.010;2023-05-07T09:59:14;18.95;61.70
65396;HTU21D;52004;45.136;39.010;2023-05-07T10:01:42;18.96;61.66
65396;HTU21D;52004;45.136;39.010;2023-05-07T10:04:09;18.98;61.68
65396;HTU21D;52004;45.136;39.010;2023-05-07T10:06:37;18.99;61.61
65396;HTU21D;52004;45.136;39.010;2023-05-07T10:09:04;18.98;61.57
65396;HTU21D;52004;45.136;39.010;2023-05-07T10:11:33;18.95;61.63
65396;HTU21D;52004;45.136;39.010;2023-05-07T10:14:00;18.96;61.61
65396;HTU21D;52004;45.136;39.010;2023-05-07T10:16:32;0.00;61.60
65396;HTU21D;52004;45.136;39.010;2023-05-07T10:18:58;18.91;61.62
65396;HTU21D;52004;45.136;39.010;2023-05-07T10:21:26;18.89;61.66
65396;HTU21D;52004;45.136;39.010;2023-05-07T10:24:05;18.88;61.69
65396;HTU21D;52004;45.136;39.010;2023-05-07T10:26:40;18.87;61.74
65396;HTU21D;52004;45.136;39.010;2023-05-07T10:29:10;18.88;61.78
65396;HTU21D;52004;45.136;39.010;2023-05-07T10:31:45;18.87;61.74
65396;HTU21D;52004;45.136;39.010;2023-05-07T10:34:16;18.85;61.73
65396;HTU21D;52004;45.136;39.010;2023-05-07T10:36:44;18.81;61.72
65396;HTU21D;52004;45.136;39.010;2023-05-07T10:39:11;18.78;61.73
65396;HTU21D;52004;45.136;39.010;2023-05-07T10:41:38;18.78;61.83
65396;HTU21D;52004;45.136;39.010;2023-05-07T10:44:04;18.78;61.79
65396;HTU21D;52004;45.136;39.010;2023-05-07T10:46:32;18.78;61.73
65396;HTU21D;52004;45.136;39.010;2023-05-07T10:49:11;0.00;61.74
65396;HTU21D;52004;45.136;39.010;2023-05-07T10:54:36;18.71;61.79
65396;HTU21D;52004;45.136;39.010;2023-05-07T10:59:50;18.67;61.83
65396;HTU21D;52004;45.136;39.010;2023-05-07T11:05:22;18.67;61.92
65396;HTU21D;52004;45.136;39.010;2023-05-07T11:08:08;18.68;61.89
65396;HTU21D;52004;45.136;39.010;2023-05-07T11:13:41;18.66;61.86
65396;HTU21D;52004;45.136;39.010;2023-05-07T11:16:20;18.63;61.89
65396;HTU21D;52004;45.136;39.010;2023-05-07T11:18:50;18.63;61.91
65396;HTU21D;52004;45.136;39.010;2023-05-07T11:24:05;18.58;61.93
65396;HTU21D;52004;45.136;39.010;2023-05-07T11:26:45;18.56;61.91
65396;HTU21D;52004;45.136;39.010;2023-05-07T11:29:18;18.52;61.93
65396;HTU21D;52004;45.136;39.010;2023-05-07T11:31:50;18.49;61.96
65396;HTU21D;52004;45.136;39.010;2023-05-07T11:34:24;18.46;62.03
65396;HTU21D;52004;45.136;39.010;2023-05-07T11:36:52;18.42;62.07
65396;HTU21D;52004;45.136;39.010;2023-05-07T11:39:24;0.00;62.09
65396;HTU21D;52004;45.136;39.010;2023-05-07T11:41:50;18.38;62.16
65396;HTU21D;52004;45.136;39.010;2023-05-07T11:44:16;18.38;62.27
65396;HTU21D;52004;45.136;39.010;2023-05-07T11:46:43;0.00;62.28
65396;HTU21D;52004;45.136;39.010;2023-05-07T11:49:08;18.37;62.27
65396;HTU21D;52004;45.136;39.010;2023-05-07T11:51:34;18.36;62.28
65396;HTU21D;52004;45.136;39.010;2023-05-07T11:54:03;18.34;62.31
65396;HTU21D;52004;45.136;39.010;2023-05-07T11:56:29;18.33;62.38
65396;HTU21D;52004;45.136;39.010;2023-05-07T11:58:54;18.29;62.36
65396;HTU21D;52004;45.136;39.010;2023-05-07T12:01:20;0.00;62.38
65396;HTU21D;52004;45.136;39.010;2023-05-07T12:03:46;18.28;62.44
65396;HTU21D;52004;45.136;39.010;2023-05-07T12:06:13;18.26;62.56
65396;HTU21D;52004;45.136;39.010;2023-05-07T12:08:40;18.22;62.54
65396;HTU21D;52004;45.136;39.010;2023-05-07T12:11:10;0.00;62.57
65396;HTU21D;52004;45.136;39.010;2023-05-07T12:13:38;18.14;62.55
65396;HTU21D;52004;45.136;39.010;2023-05-07T12:16:04;0.00;62.61
65396;HTU21D;52004;45.136;39.010;2023-05-07T12:18:31;18.08;62.67
65396;HTU21D;52004;45.136;39.010;2023-05-07T12:20:57;18.03;62.67
65396;HTU21D;52004;45.136;39.010;2023-05-07T12:23:24;17.99;62.76
65396;HTU21D;52004;45.136;39.010;2023-05-07T12:25:50;17.92;62.83
65396;HTU21D;52004;45.136;39.010;2023-05-07T12:28:16;17.88;62.89
65396;HTU21D;52004;45.136;39.010;2023-05-07T12:30:46;17.84;62.92
65396;HTU21D;52004;45.136;39.010;2023-05-07T12:33:16;17.81;62.97
65396;HTU21D;52004;45.136;39.010;2023-05-07T12:35:42;17.77;63.07
65396;HTU21D;52004;45.136;39.010;2023-05-07T12:38:11;17.72;63.16
65396;HTU21D;52004;45.136;39.010;2023-05-07T12:40:42;17.69;63.18
65396;HTU21D;52004;45.136;39.010;2023-05-07T12:43:21;17.69;63.21
65396;HTU21D;52004;45.136;39.010;2023-05-07T12:45:50;17.72;63.24
65396;HTU21D;52004;45.136;39.010;2023-05-07T12:48:19;0.00;63.28
65396;HTU21D;52004;45.136;39.010;2023-05-07T12:50:48;17.74;63.27
65396;HTU21D;52004;45.136;39.010;2023-05-07T12:53:14;17.75;63.33
65396;HTU21D;52004;45.136;39.010;2023-05-07T12:55:42;17.77;63.37
65396;HTU21D;52004;45.136;39.010;2023-05-07T12:58:08;17.77;63.37
65396;HTU21D;52004;45.136;39.010;2023-05-07T13:00:34;17.79;63.42
65396;HTU21D;52004;45.136;39.010;2023-05-07T13:03:01;17.80;63.44
65396;HTU21D;52004;45.136;39.010;2023-05-07T13:05:27;17.80;63.50
65396;HTU21D;52004;45.136;39.010;2023-05-07T13:07:56;17.81;63.47
65396;HTU21D;52004;45.136;39.010;2023-05-07T13:10:22;17.81;63.53
65396;HTU21D;52004;45.136;39.010;2023-05-07T13:12:49;17.81;63.53
65396;HTU21D;52004;45.136;39.010;2023-05-07T13:15:15;17.84;63.57
65396;HTU21D;52004;45.136;39.010;2023-05-07T13:17:41;17.85;63.53
65396;HTU21D;52004;45.136;39.010;2023-05-07T13:20:08;17.88;63.57
65396;HTU21D;52004;45.136;39.010;2023-05-07T13:22:34;17.84;63.60
65396;HTU21D;52004;45.136;39.010;2023-05-07T13:25:00;17.87;63.65
65396;HTU21D;52004;45.136;39.010;2023-05-07T13:27:26;17.89;63.77
65396;HTU21D;52004;45.136;39.010;2023-05-07T13:29:52;17.88;63.72
65396;HTU21D;52004;45.136;39.010;2023-05-07T13:32:18;17.89;63.73
65396;HTU21D;52004;45.136;39.010;2023-05-07T13:34:44;17.90;63.73
65396;HTU21D;52004;45.136;39.010;2023-05-07T13:37:10;17.90;63.72
65396;HTU21D;52004;45.136;39.010;2023-05-07T13:39:36;17.91;63.69
65396;HTU21D;52004;45.136;39.010;2023-05-07T13:42:02;17.88;63.69
65396;HTU21D;52004;45.136;39.010;2023-05-07T13:44:28;17.83;63.73
65396;HTU21D;52004;45.136;39.010;2023-05-07T13:46:54;17.83;63.75
65396;HTU21D;52004;45.136;39.010;2023-05-07T13:49:20;17.82;63.73
65396;HTU21D;52004;45.136;39.010;2023-05-07T13:51:46;17.81;63.84
65396;HTU21D;52004;45.136;39.010;2023-05-07T13:54:12;17.80;63.83
65396;HTU21D;52004;45.136;39.010;2023-05-07T13:56:39;17.78;63.85
65396;HTU21D;52004;45.136;39.010;2023-05-07T13:59:05;17.78;63.85
65396;HTU21D;52004;45.136;39.010;2023-05-07T14:01:31;17.75;63.83
65396;HTU21D;52004;45.136;39.010;2023-05-07T14:03:56;17.74;63.88
65396;HTU21D;52004;45.136;39.010;2023-05-07T14:06:23;17.72;63.93
65396;HTU21D;52004;45.136;39.010;2023-05-07T14:08:50;17.67;63.92
65396;HTU21D;52004;45.136;39.010;2023-05-07T14:11:15;17.65;63.97
65396;HTU21D;52004;45.136;39.010;2023-05-07T14:13:42;17.64;63.99
65396;HTU21D;52004;45.136;39.010;2023-05-07T14:16:07;17.61;64.01
65396;HTU21D;52004;45.136;39.010;2023-05-07T14:18:34;17.59;64.07
65396;HTU21D;52004;45.136;39.010;2023-05-07T14:21:00;17.58;64.05
65396;HTU21D;52004;45.136;39.010;2023-05-07T14:23:26;17.54;64.07
65396;HTU21D;52004;45.136;39.010;2023-05-07T14:25:53;0.00;64.08
65396;HTU21D;52004;45.136;39.010;2023-05-07T14:28:19;0.00;64.11
65396;HTU21D;52004;45.136;39.010;2023-05-07T14:30:45;17.51;64.11
65396;HTU21D;52004;45.136;39.010;2023-05-07T14:33:11;17.51;64.13
65396;HTU21D;52004;45.136;39.010;2023-05-07T14:35:37;17.50;64.14
65396;HTU21D;52004;45.136;39.010;2023-05-07T14:38:03;17.48;64.13
65396;HTU21D;52004;45.136;39.010;2023-05-07T14:40:29;17.48;64.14
65396;HTU21D;52004;45.136;39.010;2023-05-07T14:42:54;0.00;64.17
65396;HTU21D;52004;45.136;39.010;2023-05-07T14:45:22;0.00;64.18
65396;HTU21D;52004;45.136;39.010;2023-05-07T14:47:48;17.39;64.21
65396;HTU21D;52004;45.136;39.010;2023-05-07T14:50:14;17.36;64.25
65396;HTU21D;52004;45.136;39.010;2023-05-07T14:52:40;17.31;64.29
65396;HTU21D;52004;45.136;39.010;2023-05-07T14:55:06;17.29;64.30
65396;HTU21D;52004;45.136;39.010;2023-05-07T14:57:32;17.29;64.36
65396;HTU21D;52004;45.136;39.010;2023-05-07T15:00:01;0.00;64.33
65396;HTU21D;52004;45.136;39.010;2023-05-07T15:02:27;17.21;64.37
65396;HTU21D;52004;45.136;39.010;2023-05-07T15:04:53;0.00;64.39
65396;HTU21D;52004;45.136;39.010;2023-05-07T15:07:18;17.17;64.43
65396;HTU21D;52004;45.136;39.010;2023-05-07T15:09:44;17.11;64.44
65396;HTU21D;52004;45.136;39.010;2023-05-07T15:12:35;17.09;64.47
65396;HTU21D;52004;45.136;39.010;2023-05-07T15:15:01;17.08;64.50
65396;HTU21D;52004;45.136;39.010;2023-05-07T15:17:27;17.07;64.53
65396;HTU21D;52004;45.136;39.010;2023-05-07T15:19:53;17.04;64.54
65396;HTU21D;52004;45.136;39.010;2023-05-07T15:22:19;17.02;64.51
65396;HTU21D;52004;45.136;39.010;2023-05-07T15:24:47;16.99;64.57
65396;HTU21D;52004;45.136;39.010;2023-05-07T15:27:12;16.98;64.56